Burbank-Glendale-Pasadena, CA

5:23 AM PDT on August 28, 2014 (GMT -0700)
Los Angeles Downtown | Change Station
CLOSE
Current Station
Airport
Location: Los Angeles Downtown,
Elevation: 184 ft
Nearby Weather Stations

Elev 184 ft 34.02 °N, 118.29 °W | Updated 36 minutes ago

Clear
Clear
69 °F
Feels Like 69 °F
N
0
Wind Variable Wind from North

Today
High -- | Low -- °F
--% Chance of Precip.
Yesterday
High -- | Low -- °F
Precip. -- in
6:24 AM 7:24 PM
Waxing Crescent, 8% visible
Pressure 29.97 in
Visibility 10.0 miles
Clouds Clear
Dew Point 56 °F
Humidity 63%
Rainfall 0.00 in
Snow Depth Not available.
UV 0 out of 12
Pollen 7.80 out of 12
Ozone Good
PM2.5 Moderate
Flu Activity Not available.
METAR KCQT 281147Z AUTO 00000KT 10SM CLR 21/13 A2998 RMK AO2 SLP149 T02060133 10233 20206 55006

More Conditions Fewer Conditions

Pressure 29.97 in
Visibility 10.0 miles
Clouds Clear
Dew Point 56 °F
Humidity 63%
Rainfall 0.00 in
Snow Depth Not available.
UV 0 out of 12
Pollen 7.80 out of 12
Ozone Good
PM2.5 Moderate
Flu Activity Not available.
METAR KCQT 281147Z AUTO 00000KT 10SM CLR 21/13 A2998 RMK AO2 SLP149 T02060133 10233 20206 55006

More Conditions Fewer Conditions

10-Day Weather Forecast

Almanac

Astronomy

Aug. 28, 2014 Rise Set
Actual Time 6:24 AM PDT 7:24 PM PDT
Civil Twilight 5:58 AM PDT 7:50 PM PDT
Nautical Twilight 5:27 AM PDT 8:20 PM PDT
Astronomical Twilight 4:56 AM PDT 8:52 PM PDT
Moon 9:11 AM PDT 9:01 PM PDT
Length of Visible Light 13h 51m
Length of Day
13h 00m
Tomorrow will be 2m 1s shorter.
Waxing Crescent, 8% of the Moon is Illuminated
Today
Waxing Crescent
Sep 2
First Quarter
Sep 8
Full
Sep 15
Last Quarter
Sep 24
New

Today's Extremes

State Highs State Lows

Community

WunderPhotos

Upload Photos

1,747,938 photos uploaded!

Nearby

Air Quality

  Air Quality AQ Index Pollutant
Yesterday Moderate
OZONE
Yesterday Moderate
PM2.5
Current Moderate
PM2.5
Current Good
OZONE
Thursday Good
PM10
Thursday Good
OZONE
Thursday Good
CO
Thursday Good
NO2

Snow Depth

Station Depth Elevation
Leavitt Lake 0 in 9400 ft
Sonora Pass 0 in 8800 ft
Leavitt Meadows 1 in 7200 ft
Summit Meadow 0 in 9122 ft
Blue Lakes 0 in 8000 ft

Earthquake Activity

City Distance Mag. Time & Date
San Fernando, California 4 miles 2.5 4:57 AM PDT
2014-08-26
Minimum magnitude displayed is 2.5.

Coastal Water Temperatures

Place Temperature
Santa Monica Pier 69.1 °F
Los Angeles, CA 66.9 °F
La Jolla, CA 72.0 °F

Nearby Weather Stations